Huvudsida
METAR-TAF:

METAR-TAF

Flygplatser :

Florø flygplats

Florø, Norge

latitud: 61-35N, longitud: 005-02E, höjd: 0 m

Aktuellt väderrapport

Denna rapport gjordes för 34 minuter sedan, klockan 23:50 UTC
Vind 6 kt från ost/nordost
Temperatur 3°C
Fuktighet 81%
Tryck 1011 hPa
Sikt 10 km eller mer

METAR: ENFL 182350Z AUTO 07006KT 9999NDV OVC100/// 03/00 Q1011

Tid: 01:24 (00:24 UTC)

Väderprognos

Denna rapport gjordes för 7 timmar och 24 minuter sedan, klockan 17:00 UTC
Prognos gäller från 18 kl. 18 UTC till 18 kl. 23 UTC
Vind 8 kt från ost
Sikt 10 km eller mer
Få moln på en höjd av 2500 ft
Brutna moln på en höjd av 5000 ft

TAF: ENFL 181700Z 1818/1823 09008KT 9999 FEW025 BKN050

Aktuella väderrapporter och prognoser från 4000 flygplatser (METAR- och TAF-rapporter).

De tillgängliga stationerna syns som gula och röda prickar på kartan.

För musen över prickarna för att se namnen på stationerna.

Klicka sedan för att få väderrapporter och prognoser.

För att ändra kartan: Klicka på de gröna knapparna med ett svart kors på för att zooma in; den gröna knappen med ett streck på för att zooma ut; eller på de gröna pilarna för angränsande kartor.


METAR-TAF: